Time;durP1;ratioP1;P1;durP2;ratioP2;P2;SDS_P1;SDS_P2;PMS_P1;PMS_P2;Temp;Humidity;BMP_temperature;BMP_pressure;BME280_temperature;BME280_humidity;BME280_pressure;Samples;Min_cycle;Max_cycle;Signal;HPM_P1;HPM_P2
2023/12/16 00:01:51;;;;;;;22.02;13.52;;;;;8.60;100791.00;;;;5030867;28;20072;-64
2023/12/16 00:04:31;;;;;;;19.95;12.85;;;;;8.60;100793.00;;;;5031633;28;20120;-64
2023/12/16 00:06:57;;;;;;;19.08;12.68;;;;;8.60;100789.00;;;;5030486;28;20073;-62
2023/12/16 00:09:24;;;;;;;21.17;13.07;;;;;8.60;100810.00;;;;5032035;28;20053;-63
2023/12/16 00:11:51;;;;;;;20.55;12.63;;;;;8.60;100796.00;;;;5032096;28;20128;-62
2023/12/16 00:14:18;;;;;;;19.25;12.57;;;;;8.50;100795.00;;;;5031499;28;20053;-63
2023/12/16 00:16:45;;;;;;;20.67;12.55;;;;;8.60;100791.00;;;;5030546;28;20045;-62
2023/12/16 00:19:12;;;;;;;20.02;13.05;;;;;8.60;100792.00;;;;5032079;28;20041;-63
2023/12/16 00:21:39;;;;;;;22.60;13.35;;;;;8.60;100792.00;;;;5031806;28;20061;-62
2023/12/16 00:24:08;;;;;;;20.95;12.98;;;;;8.60;100787.00;;;;5030140;28;20052;-62
2023/12/16 00:26:35;;;;;;;20.67;13.60;;;;;8.70;100791.00;;;;5031894;28;20558;-62
2023/12/16 00:29:01;;;;;;;19.95;13.30;;;;;8.60;100788.00;;;;5031979;28;20045;-62
2023/12/16 00:31:28;;;;;;;23.80;13.13;;;;;8.60;100793.00;;;;5031842;28;20042;-63
2023/12/16 00:33:54;;;;;;;20.33;13.82;;;;;8.70;100797.00;;;;5031288;28;20045;-62
2023/12/16 00:36:21;;;;;;;16.90;12.30;;;;;8.70;100799.00;;;;5031797;28;20037;-62
2023/12/16 00:38:48;;;;;;;19.15;12.63;;;;;8.70;100793.00;;;;5031791;28;20434;-62
2023/12/16 00:41:14;;;;;;;19.25;12.90;;;;;8.60;100784.00;;;;5030646;28;20041;-63
2023/12/16 00:43:41;;;;;;;22.85;13.05;;;;;8.60;100785.00;;;;5031367;28;20051;-63
2023/12/16 00:46:07;;;;;;;19.92;13.25;;;;;8.60;100776.00;;;;5031691;28;20116;-62
2023/12/16 00:48:34;;;;;;;21.27;13.10;;;;;8.50;100784.00;;;;5031756;28;20525;-63
2023/12/16 00:51:02;;;;;;;19.98;12.80;;;;;8.50;100782.00;;;;5030425;28;20053;-63
2023/12/16 00:53:28;;;;;;;19.42;11.82;;;;;8.40;100785.00;;;;5030894;28;20088;-64
2023/12/16 00:55:55;;;;;;;17.02;12.07;;;;;8.30;100799.00;;;;5031511;28;20063;-62
2023/12/16 00:58:21;;;;;;;18.15;12.25;;;;;8.30;100792.00;;;;5031595;28;20045;-61
2023/12/16 01:00:48;;;;;;;17.00;11.70;;;;;8.30;100806.00;;;;5030239;28;20045;-62
2023/12/16 01:03:15;;;;;;;19.60;12.23;;;;;8.30;100802.00;;;;5031640;28;20080;-63
2023/12/16 01:05:41;;;;;;;23.25;12.57;;;;;8.40;100801.00;;;;5030955;28;20077;-63
2023/12/16 01:08:08;;;;;;;19.23;11.88;;;;;8.40;100811.00;;;;5031433;28;20061;-62
2023/12/16 01:10:35;;;;;;;18.17;11.48;;;;;8.30;100805.00;;;;5013945;28;20462;-64
2023/12/16 01:13:02;;;;;;;20.17;12.73;;;;;8.30;100807.00;;;;5030414;28;20136;-62
2023/12/16 01:15:28;;;;;;;22.13;12.57;;;;;8.20;100813.00;;;;5030850;28;20052;-62
2023/12/16 01:17:55;;;;;;;21.20;13.05;;;;;8.30;100810.00;;;;5031338;28;20042;-64
2023/12/16 01:20:23;;;;;;;21.23;13.57;;;;;8.30;100811.00;;;;5031438;28;20045;-62
2023/12/16 01:22:50;;;;;;;23.20;13.48;;;;;8.30;100808.00;;;;5031274;28;20042;-60
2023/12/16 01:25:16;;;;;;;21.00;12.90;;;;;8.30;100799.00;;;;5030887;28;20044;-62
2023/12/16 01:27:43;;;;;;;18.45;12.10;;;;;8.40;100803.00;;;;5031373;28;20438;-63
2023/12/16 01:30:10;;;;;;;20.73;12.23;;;;;8.40;100801.00;;;;5031267;28;20049;-61
2023/12/16 01:32:37;;;;;;;20.95;13.30;;;;;8.50;100790.00;;;;5033097;28;20053;-60
2023/12/16 01:35:04;;;;;;;19.50;12.10;;;;;8.50;100794.00;;;;5034217;28;20091;-61
2023/12/16 01:37:31;;;;;;;21.70;12.45;;;;;8.50;100797.00;;;;5034813;28;20111;-61
2023/12/16 01:40:00;;;;;;;18.75;11.45;;;;;8.50;100800.00;;;;5035250;28;20041;-62
2023/12/16 01:42:26;;;;;;;17.42;11.50;;;;;8.50;100804.00;;;;5034763;28;20088;-61
2023/12/16 01:44:53;;;;;;;18.95;12.68;;;;;8.60;100815.00;;;;5032837;28;20582;-61
2023/12/16 01:47:20;;;;;;;20.60;12.45;;;;;8.60;100809.00;;;;5034610;28;20042;-61
2023/12/16 01:49:47;;;;;;;18.92;12.05;;;;;8.60;100812.00;;;;5034659;28;20041;-62
2023/12/16 01:52:14;;;;;;;20.30;13.30;;;;;8.40;100816.00;;;;5034851;28;20045;-61
2023/12/16 01:54:44;;;;;;;19.20;12.60;;;;;8.50;100819.00;;;;5034021;28;20124;-61
2023/12/16 01:57:11;;;;;;;16.33;11.75;;;;;8.50;100820.00;;;;5034409;28;20042;-61
2023/12/16 01:59:37;;;;;;;22.80;12.57;;;;;8.50;100817.00;;;;5034500;28;20080;-61
2023/12/16 02:02:05;;;;;;;17.38;12.38;;;;;8.60;100824.00;;;;5034432;28;20128;-61
2023/12/16 02:04:32;;;;;;;20.48;12.88;;;;;8.60;100823.00;;;;5033825;28;20096;-61
2023/12/16 02:06:59;;;;;;;18.98;12.32;;;;;8.60;100825.00;;;;5034310;28;20092;-62
2023/12/16 02:09:25;;;;;;;19.98;13.75;;;;;8.60;100830.00;;;;5034424;28;20083;-61
2023/12/16 02:11:52;;;;;;;19.55;12.52;;;;;8.50;100832.00;;;;5034400;28;20041;-60
2023/12/16 02:14:19;;;;;;;19.17;11.93;;;;;8.50;100832.00;;;;5033648;28;20104;-62
2023/12/16 02:16:46;;;;;;;20.10;12.65;;;;;8.60;100834.00;;;;5034062;28;20149;-62
2023/12/16 02:19:23;;;;;;;18.85;12.32;;;;;8.50;100833.00;;;;5034238;28;20049;-63
2023/12/16 02:21:49;;;;;;;20.20;11.90;;;;;8.40;100832.00;;;;5034105;28;20041;-61
2023/12/16 02:24:17;;;;;;;17.77;12.07;;;;;8.40;100833.00;;;;5033521;28;20421;-62
2023/12/16 02:26:44;;;;;;;20.77;13.50;;;;;8.30;100829.00;;;;5033978;28;20570;-62
2023/12/16 02:29:10;;;;;;;18.65;12.15;;;;;8.20;100831.00;;;;5034019;28;20041;-62
2023/12/16 02:31:37;;;;;;;17.90;12.07;;;;;8.00;100832.00;;;;5033879;28;20131;-62
2023/12/16 02:34:04;;;;;;;24.85;12.02;;;;;8.00;100846.00;;;;5033294;28;20123;-61
2023/12/16 02:36:31;;;;;;;18.70;12.05;;;;;8.10;100838.00;;;;5033727;28;20079;-61
2023/12/16 02:38:57;;;;;;;22.50;12.50;;;;;8.20;100848.00;;;;5033731;28;20053;-62
2023/12/16 02:41:24;;;;;;;20.25;13.13;;;;;8.30;100847.00;;;;5033818;28;20124;-62
2023/12/16 02:43:51;;;;;;;22.20;13.80;;;;;8.40;100846.00;;;;5032997;28;20053;-62
2023/12/16 02:46:17;;;;;;;19.20;12.57;;;;;8.40;100848.00;;;;5033427;28;20069;-62
2023/12/16 02:48:44;;;;;;;20.02;12.40;;;;;8.30;100849.00;;;;5033574;28;20052;-63
2023/12/16 02:51:20;;;;;;;17.50;11.85;;;;;8.40;100854.00;;;;5033699;28;20103;-62
2023/12/16 02:53:46;;;;;;;18.38;12.60;;;;;8.40;100855.00;;;;5031631;28;20132;-62
2023/12/16 02:56:13;;;;;;;19.08;13.25;;;;;8.30;100862.00;;;;5033270;28;20533;-62
2023/12/16 02:58:40;;;;;;;18.25;12.15;;;;;8.30;100861.00;;;;5033433;28;20041;-62
2023/12/16 03:01:06;;;;;;;21.17;13.40;;;;;8.20;100874.00;;;;5033352;28;20121;-61
2023/12/16 03:03:35;;;;;;;24.65;14.00;;;;;8.30;100869.00;;;;5032646;28;20050;-62
2023/12/16 03:06:06;;;;;;;20.92;13.30;;;;;8.30;100862.00;;;;5031918;28;20570;-63
2023/12/16 03:08:37;;;;;;;20.60;12.35;;;;;8.20;100873.00;;;;5033182;28;20048;-63
2023/12/16 03:11:04;;;;;;;19.33;11.95;;;;;8.20;100866.00;;;;5033128;28;20079;-63
2023/12/16 03:13:31;;;;;;;21.20;12.18;;;;;8.20;100859.00;;;;5032392;28;20045;-63
2023/12/16 03:16:00;;;;;;;19.25;12.00;;;;;8.30;100856.00;;;;5032928;28;20445;-62
2023/12/16 03:18:26;;;;;;;19.48;11.90;;;;;8.20;100861.00;;;;5032956;28;20095;-64
2023/12/16 03:20:54;;;;;;;20.38;13.05;;;;;8.10;100872.00;;;;5032889;28;20103;-62
2023/12/16 03:23:20;;;;;;;21.30;12.95;;;;;8.00;100869.00;;;;5031432;28;20141;-62
2023/12/16 03:25:47;;;;;;;19.50;12.38;;;;;8.00;100861.00;;;;5032403;28;20126;-62
2023/12/16 03:28:13;;;;;;;19.70;12.43;;;;;8.10;100854.00;;;;5032858;28;20045;-62
2023/12/16 03:30:41;;;;;;;20.60;13.02;;;;;8.20;100859.00;;;;5032825;28;20053;-62
2023/12/16 03:33:08;;;;;;;20.85;12.20;;;;;8.30;100853.00;;;;5031508;28;20141;-62
2023/12/16 03:35:35;;;;;;;18.70;11.70;;;;;8.40;100849.00;;;;5032091;28;20048;-64
2023/12/16 03:38:02;;;;;;;19.83;12.18;;;;;8.30;100859.00;;;;5032473;28;20045;-60
2023/12/16 03:40:29;;;;;;;26.10;12.98;;;;;8.20;100853.00;;;;5032710;28;20041;-62
2023/12/16 03:42:57;;;;;;;22.33;13.32;;;;;8.00;100853.00;;;;5031547;28;20103;-60
2023/12/16 03:45:24;;;;;;;21.92;12.85;;;;;8.00;100855.00;;;;5032718;28;20049;-60
2023/12/16 03:47:51;;;;;;;20.90;13.30;;;;;8.10;100843.00;;;;5032570;28;20486;-61
2023/12/16 03:50:17;;;;;;;20.33;12.38;;;;;8.20;100853.00;;;;5032670;28;20079;-61
2023/12/16 03:52:44;;;;;;;20.02;12.65;;;;;8.10;100853.00;;;;5032517;28;20128;-61
2023/12/16 03:55:11;;;;;;;24.55;12.95;;;;;8.10;100850.00;;;;5031679;28;20551;-60
2023/12/16 03:57:38;;;;;;;21.70;12.77;;;;;8.10;100861.00;;;;5030941;28;20046;-61
2023/12/16 04:00:06;;;;;;;18.67;12.63;;;;;8.10;100861.00;;;;5032350;28;20069;-60
2023/12/16 04:02:38;;;;;;;20.70;11.85;;;;;8.10;100863.00;;;;5032296;28;20052;-63
2023/12/16 04:05:06;;;;;;;21.23;12.90;;;;;8.10;100852.00;;;;5031547;28;20049;-60
2023/12/16 04:07:32;;;;;;;19.58;11.90;;;;;8.20;100853.00;;;;5032124;28;20048;-63
2023/12/16 04:09:59;;;;;;;19.88;12.45;;;;;8.20;100847.00;;;;5032154;28;20509;-61
2023/12/16 04:12:26;;;;;;;18.88;12.32;;;;;8.30;100852.00;;;;5032222;28;20068;-61
2023/12/16 04:14:53;;;;;;;19.70;12.55;;;;;8.30;100850.00;;;;5031680;28;20087;-61
2023/12/16 04:17:20;;;;;;;21.10;13.18;;;;;8.40;100852.00;;;;5031882;28;20092;-61
2023/12/16 04:19:51;;;;;;;22.75;13.38;;;;;8.40;100856.00;;;;5032080;28;20494;-61
2023/12/16 04:22:18;;;;;;;17.05;12.27;;;;;8.20;100860.00;;;;5030616;28;20463;-61
2023/12/16 04:24:46;;;;;;;18.92;11.95;;;;;8.20;100863.00;;;;5031357;28;20406;-61
2023/12/16 04:27:12;;;;;;;22.25;11.70;;;;;8.30;100866.00;;;;5031845;28;20037;-61
2023/12/16 04:29:39;;;;;;;19.02;11.90;;;;;8.30;100859.00;;;;5031936;28;20407;-60
2023/12/16 04:32:06;;;;;;;19.02;11.43;;;;;8.30;100857.00;;;;5031862;28;20048;-61
2023/12/16 04:34:32;;;;;;;22.50;12.43;;;;;8.30;100857.00;;;;5031415;28;20041;-59
2023/12/16 04:36:59;;;;;;;17.20;11.38;;;;;8.30;100838.00;;;;5031745;28;20099;-60
2023/12/16 04:39:26;;;;;;;16.67;10.70;;;;;8.30;100849.00;;;;5032032;28;20042;-61
2023/12/16 04:41:52;;;;;;;22.08;13.07;;;;;8.30;100845.00;;;;5031967;28;20051;-61
2023/12/16 04:44:19;;;;;;;18.77;11.60;;;;;8.30;100850.00;;;;5031528;28;20057;-62
2023/12/16 04:46:45;;;;;;;19.77;11.65;;;;;8.20;100845.00;;;;5031873;28;20048;-59
2023/12/16 04:49:12;;;;;;;19.50;11.85;;;;;8.20;100834.00;;;;5031874;28;20045;-60
2023/12/16 04:51:39;;;;;;;16.98;11.10;;;;;8.30;100835.00;;;;5031891;28;20522;-63
2023/12/16 04:54:05;;;;;;;17.42;11.98;;;;;8.30;100832.00;;;;5031149;28;20077;-61
2023/12/16 04:56:32;;;;;;;17.02;11.27;;;;;8.30;100826.00;;;;5031605;28;20046;-60
2023/12/16 04:58:58;;;;;;;21.45;11.77;;;;;8.30;100828.00;;;;5031643;28;20061;-60
2023/12/16 05:01:25;;;;;;;17.77;10.50;;;;;8.30;100831.00;;;;5031817;28;20058;-63
2023/12/16 05:03:52;;;;;;;16.67;10.18;;;;;8.30;100830.00;;;;5031161;28;20041;-63
2023/12/16 05:06:19;;;;;;;17.30;11.15;;;;;8.30;100831.00;;;;5030404;28;20045;-63
2023/12/16 05:08:45;;;;;;;19.15;10.73;;;;;8.30;100839.00;;;;5034324;28;20084;-61
2023/12/16 05:11:12;;;;;;;16.63;9.23;;;;;8.30;100843.00;;;;5035459;28;20045;-63
2023/12/16 05:13:38;;;;;;;17.35;10.43;;;;;8.20;100849.00;;;;5035067;28;20045;-63
2023/12/16 05:16:05;;;;;;;15.55;9.27;;;;;8.20;100854.00;;;;5035374;28;20045;-64
2023/12/16 05:18:35;;;;;;;18.45;10.95;;;;;8.20;100849.00;;;;5035422;28;20087;-64
2023/12/16 05:21:01;;;;;;;20.98;11.73;;;;;8.20;100846.00;;;;5035499;28;20049;-64
2023/12/16 05:23:28;;;;;;;20.75;11.80;;;;;8.20;100849.00;;;;5034631;28;20053;-64
2023/12/16 05:25:54;;;;;;;18.00;10.75;;;;;8.20;100845.00;;;;5035016;28;20123;-64
2023/12/16 05:28:21;;;;;;;19.23;10.52;;;;;8.20;100858.00;;;;5035246;28;20045;-63
2023/12/16 05:30:48;;;;;;;16.30;10.32;;;;;8.20;100859.00;;;;5034228;28;20076;-64
2023/12/16 05:33:14;;;;;;;20.00;11.20;;;;;8.20;100857.00;;;;5035800;28;20048;-64
2023/12/16 05:35:41;;;;;;;17.67;10.25;;;;;8.10;100856.00;;;;5035070;28;20049;-63
2023/12/16 05:38:08;;;;;;;17.77;10.32;;;;;8.10;100868.00;;;;5035584;28;20045;-64
2023/12/16 05:40:34;;;;;;;21.33;12.77;;;;;8.10;100859.00;;;;5035903;28;20080;-62
2023/12/16 05:43:01;;;;;;;21.52;10.52;;;;;8.10;100852.00;;;;5035882;28;20045;-63
2023/12/16 05:45:27;;;;;;;15.90;10.25;;;;;8.10;100854.00;;;;5035248;28;20049;-63
2023/12/16 05:47:54;;;;;;;19.90;12.27;;;;;8.10;100855.00;;;;5036016;28;20042;-63
2023/12/16 05:50:21;;;;;;;17.70;10.07;;;;;8.10;100848.00;;;;5036179;28;20045;-63
2023/12/16 05:52:47;;;;;;;16.95;10.93;;;;;8.10;100853.00;;;;5035790;28;20041;-63
2023/12/16 05:55:14;;;;;;;18.48;11.10;;;;;8.10;100854.00;;;;5034804;28;20052;-63
2023/12/16 05:57:40;;;;;;;22.60;11.43;;;;;8.00;100852.00;;;;5035451;28;20048;-63
2023/12/16 06:00:08;;;;;;;16.88;11.30;;;;;8.00;100859.00;;;;5035227;28;20037;-63
2023/12/16 06:02:35;;;;;;;16.45;10.30;;;;;7.90;100858.00;;;;5033810;28;20053;-62
2023/12/16 06:05:03;;;;;;;16.83;10.35;;;;;7.70;100862.00;;;;5034481;28;20045;-63
2023/12/16 06:07:30;;;;;;;17.98;11.40;;;;;7.60;100862.00;;;;5034688;28;20050;-64
2023/12/16 06:09:56;;;;;;;19.27;11.27;;;;;7.50;100859.00;;;;5033454;28;20049;-63
2023/12/16 06:12:23;;;;;;;17.80;11.43;;;;;7.50;100872.00;;;;5034667;28;20060;-62
2023/12/16 06:14:49;;;;;;;18.10;9.95;;;;;7.50;100875.00;;;;5034059;28;20487;-63
2023/12/16 06:17:16;;;;;;;16.08;10.40;;;;;7.20;100876.00;;;;5034031;28;20052;-64
2023/12/16 06:19:42;;;;;;;41.60;24.30;;;;;7.10;100861.00;;;;5034114;28;20049;-63
2023/12/16 06:22:09;;;;;;;17.63;10.68;;;;;7.00;100864.00;;;;5034009;28;20045;-62
2023/12/16 06:24:36;;;;;;;18.17;10.18;;;;;6.90;100864.00;;;;5033305;28;20079;-63
2023/12/16 06:27:02;;;;;;;18.35;10.57;;;;;6.90;100863.00;;;;5032682;28;20073;-64
2023/12/16 06:29:30;;;;;;;13.02;9.55;;;;;6.70;100862.00;;;;5032700;28;20054;-63
2023/12/16 06:31:56;;;;;;;15.80;10.35;;;;;6.70;100868.00;;;;5033962;28;20481;-64
2023/12/16 06:34:23;;;;;;;18.25;10.43;;;;;6.70;100862.00;;;;5032082;28;20486;-64
2023/12/16 06:36:50;;;;;;;19.42;10.43;;;;;6.80;100865.00;;;;5033623;28;20061;-63
2023/12/16 06:39:16;;;;;;;17.20;10.32;;;;;6.80;100864.00;;;;5033669;28;20176;-64
2023/12/16 06:41:43;;;;;;;16.10;9.88;;;;;6.80;100870.00;;;;5033809;28;20050;-65
2023/12/16 06:44:09;;;;;;;14.95;9.85;;;;;6.90;100876.00;;;;5033169;28;20056;-65
2023/12/16 06:46:36;;;;;;;18.25;10.98;;;;;6.90;100883.00;;;;5033700;28;20043;-65
2023/12/16 06:49:03;;;;;;;17.17;11.25;;;;;7.00;100891.00;;;;5033594;28;20053;-64
2023/12/16 06:51:29;;;;;;;17.65;11.07;;;;;7.00;100896.00;;;;5033507;28;20053;-64
2023/12/16 06:53:56;;;;;;;28.67;16.75;;;;;7.00;100904.00;;;;5031562;28;20741;-64
2023/12/16 06:56:22;;;;;;;17.65;11.35;;;;;7.00;100904.00;;;;5033319;28;20051;-64
2023/12/16 06:58:49;;;;;;;18.67;11.32;;;;;7.10;100904.00;;;;5032235;28;20081;-64
2023/12/16 07:01:16;;;;;;;19.65;12.57;;;;;7.10;100907.00;;;;5033467;28;20048;-64
2023/12/16 07:03:42;;;;;;;17.85;11.52;;;;;7.10;100911.00;;;;5032730;28;20141;-62
2023/12/16 07:06:12;;;;;;;22.48;12.80;;;;;7.00;100904.00;;;;5033311;28;20060;-64
2023/12/16 07:08:40;;;;;;;18.92;12.35;;;;;7.00;100908.00;;;;5033103;28;20049;-63
2023/12/16 07:11:07;;;;;;;21.85;13.00;;;;;6.90;100912.00;;;;5033439;28;20042;-64
2023/12/16 07:13:34;;;;;;;23.85;14.13;;;;;6.90;100928.00;;;;5032652;28;20084;-64
2023/12/16 07:16:03;;;;;;;18.05;10.90;;;;;6.90;100918.00;;;;5032986;28;20579;-64
2023/12/16 07:18:30;;;;;;;19.55;11.35;;;;;7.00;100918.00;;;;5032934;28;20037;-64
2023/12/16 07:20:57;;;;;;;14.93;9.70;;;;;7.00;100922.00;;;;5032757;28;20099;-64
2023/12/16 07:23:24;;;;;;;16.00;10.05;;;;;7.10;100916.00;;;;5032332;28;20171;-64
2023/12/16 07:25:50;;;;;;;13.57;9.73;;;;;7.00;100917.00;;;;5032731;28;20509;-64
2023/12/16 07:28:18;;;;;;;18.77;10.43;;;;;7.00;100912.00;;;;5032773;28;20128;-63
2023/12/16 07:30:45;;;;;;;20.42;10.57;;;;;7.00;100907.00;;;;5030736;28;20053;-64
2023/12/16 07:33:11;;;;;;;17.55;10.02;;;;;7.20;100917.00;;;;5031310;28;20041;-63
2023/12/16 07:35:38;;;;;;;16.77;11.35;;;;;7.20;100913.00;;;;5030819;28;20502;-64
2023/12/16 07:38:06;;;;;;;18.60;10.43;;;;;7.30;100906.00;;;;5032337;28;20491;-64
2023/12/16 07:40:34;;;;;;;17.23;9.57;;;;;7.40;100912.00;;;;5032609;28;20124;-64
2023/12/16 07:43:01;;;;;;;18.25;10.48;;;;;7.40;100912.00;;;;5031461;28;20052;-64
2023/12/16 07:45:28;;;;;;;23.02;12.98;;;;;7.40;100917.00;;;;5030582;28;20042;-64
2023/12/16 07:47:55;;;;;;;20.48;11.77;;;;;7.30;100916.00;;;;5032391;28;20084;-64
2023/12/16 07:50:22;;;;;;;20.50;12.25;;;;;7.30;100916.00;;;;5032465;28;20069;-64
2023/12/16 07:52:49;;;;;;;20.35;11.90;;;;;7.30;100921.00;;;;5031116;28;20048;-64
2023/12/16 07:55:15;;;;;;;21.80;11.32;;;;;7.40;100921.00;;;;5031910;28;20060;-64
2023/12/16 07:57:42;;;;;;;16.58;10.90;;;;;7.40;100927.00;;;;5032371;28;20045;-64
2023/12/16 08:00:09;;;;;;;19.08;11.73;;;;;7.50;100922.00;;;;5032518;28;20072;-64
2023/12/16 08:02:36;;;;;;;33.42;24.98;;;;;7.40;100929.00;;;;5032342;28;20045;-63
2023/12/16 08:05:03;;;;;;;33.63;25.35;;;;;7.30;100935.00;;;;5031549;28;20041;-64
2023/12/16 08:07:29;;;;;;;24.08;16.30;;;;;7.40;100933.00;;;;5032128;28;20120;-64
2023/12/16 08:09:56;;;;;;;22.35;12.82;;;;;7.40;100944.00;;;;5032082;28;20458;-62
2023/12/16 08:12:23;;;;;;;20.58;12.00;;;;;7.40;100939.00;;;;5030825;28;20056;-64
2023/12/16 08:14:50;;;;;;;19.27;10.68;;;;;7.60;100941.00;;;;5031477;28;20041;-64
2023/12/16 08:17:16;;;;;;;16.38;10.77;;;;;7.70;100939.00;;;;5031731;28;20084;-64
2023/12/16 08:19:43;;;;;;;19.50;12.35;;;;;7.80;100940.00;;;;5032093;28;20053;-63
2023/12/16 08:22:10;;;;;;;19.08;11.77;;;;;7.80;100937.00;;;;5014403;28;20080;-64
2023/12/16 08:24:36;;;;;;;15.82;10.70;;;;;7.80;100944.00;;;;5031408;28;20042;-64
2023/12/16 08:27:03;;;;;;;21.20;12.45;;;;;7.80;100943.00;;;;5030785;28;20068;-63
2023/12/16 08:29:30;;;;;;;19.10;11.95;;;;;7.80;100954.00;;;;5031891;28;20116;-64
2023/12/16 08:31:56;;;;;;;19.67;11.57;;;;;7.80;100951.00;;;;5031915;28;20486;-64
2023/12/16 08:34:23;;;;;;;18.48;11.88;;;;;7.80;100954.00;;;;5031323;28;20502;-64
2023/12/16 08:36:49;;;;;;;18.50;11.90;;;;;7.80;100953.00;;;;5031711;28;20084;-64
2023/12/16 08:39:16;;;;;;;16.23;11.38;;;;;7.90;100953.00;;;;5030448;28;20069;-64
2023/12/16 08:41:43;;;;;;;18.58;12.48;;;;;7.90;100963.00;;;;5033987;28;20046;-64
2023/12/16 08:44:10;;;;;;;22.45;13.45;;;;;7.80;100970.00;;;;5035140;28;20046;-64
2023/12/16 08:46:40;;;;;;;17.23;10.68;;;;;7.90;100963.00;;;;5035859;28;20044;-61
2023/12/16 08:49:07;;;;;;;12.52;8.75;;;;;7.90;100974.00;;;;5035834;28;20048;-61
2023/12/16 08:51:34;;;;;;;14.10;9.25;;;;;8.00;100982.00;;;;5035734;28;20046;-62
2023/12/16 08:54:01;;;;;;;16.80;8.95;;;;;8.00;100984.00;;;;5035358;28;20516;-61
2023/12/16 08:56:27;;;;;;;13.93;8.43;;;;;8.10;100982.00;;;;5035739;28;20053;-61
2023/12/16 08:58:54;;;;;;;13.43;8.95;;;;;8.20;100989.00;;;;5035552;28;20041;-61
2023/12/16 09:01:20;;;;;;;14.43;9.10;;;;;8.30;100988.00;;;;5035648;28;20037;-61
2023/12/16 09:03:47;;;;;;;15.73;9.13;;;;;8.30;100985.00;;;;5035007;28;20045;-60
2023/12/16 09:06:14;;;;;;;14.10;9.00;;;;;8.20;100988.00;;;;5035556;28;20041;-60
2023/12/16 09:08:40;;;;;;;12.35;8.43;;;;;8.20;100988.00;;;;5035427;28;20045;-62
2023/12/16 09:11:07;;;;;;;13.95;10.15;;;;;8.30;100997.00;;;;5035557;28;20045;-61
2023/12/16 09:13:33;;;;;;;15.30;10.48;;;;;8.20;100992.00;;;;5034735;28;20560;-61
2023/12/16 09:16:00;;;;;;;14.98;9.93;;;;;8.10;101007.00;;;;5035150;28;20128;-62
2023/12/16 09:18:27;;;;;;;25.95;13.80;;;;;8.10;101009.00;;;;5035208;28;20038;-62
2023/12/16 09:20:54;;;;;;;22.90;12.85;;;;;7.90;100998.00;;;;5035162;28;20056;-61
2023/12/16 09:23:20;;;;;;;23.17;12.70;;;;;7.90;101007.00;;;;5035006;28;20524;-63
2023/12/16 09:25:47;;;;;;;26.10;12.82;;;;;7.80;101006.00;;;;5034720;28;20041;-62
2023/12/16 09:28:15;;;;;;;21.27;11.75;;;;;7.90;101002.00;;;;5035360;28;20120;-62
2023/12/16 09:30:42;;;;;;;17.88;11.65;;;;;7.90;101009.00;;;;5035058;28;20124;-64
2023/12/16 09:33:08;;;;;;;14.15;9.93;;;;;8.00;101014.00;;;;5034950;28;20499;-64
2023/12/16 09:35:35;;;;;;;18.20;10.23;;;;;8.00;101016.00;;;;5034473;28;20119;-64
2023/12/16 09:38:01;;;;;;;16.42;10.20;;;;;8.00;101015.00;;;;5034695;28;20060;-64
2023/12/16 09:40:28;;;;;;;14.77;9.52;;;;;8.00;101020.00;;;;5034935;28;20121;-64
2023/12/16 09:43:11;;;;;;;16.65;9.65;;;;;8.00;101018.00;;;;5035042;28;20065;-64
2023/12/16 09:45:38;;;;;;;16.60;9.23;;;;;8.10;101010.00;;;;5034339;28;20053;-64
2023/12/16 09:48:05;;;;;;;13.57;7.95;;;;;8.10;101018.00;;;;5034737;28;20045;-65
2023/12/16 09:50:32;;;;;;;15.10;9.95;;;;;8.10;101015.00;;;;5034870;28;20057;-64
2023/12/16 09:52:59;;;;;;;22.73;13.45;;;;;8.10;101014.00;;;;5033837;28;20042;-62
2023/12/16 09:55:25;;;;;;;15.05;9.15;;;;;8.10;101009.00;;;;5034038;28;20128;-62
2023/12/16 09:57:56;;;;;;;14.60;9.82;;;;;8.20;101014.00;;;;5034405;28;20506;-62
2023/12/16 10:00:23;;;;;;;16.92;10.07;;;;;8.40;101010.00;;;;5033282;28;20049;-62
2023/12/16 10:02:53;;;;;;;17.15;9.23;;;;;8.20;101008.00;;;;5034416;28;20053;-62
2023/12/16 10:05:20;;;;;;;16.15;9.13;;;;;8.30;101005.00;;;;5033566;28;20510;-64
2023/12/16 10:07:47;;;;;;;13.13;9.38;;;;;8.40;101004.00;;;;5033015;28;20053;-62
2023/12/16 10:10:14;;;;;;;14.10;9.05;;;;;8.50;100995.00;;;;5034315;28;20405;-62
2023/12/16 10:12:41;;;;;;;14.55;9.55;;;;;8.70;101001.00;;;;5032987;28;20041;-62
2023/12/16 10:15:08;;;;;;;17.75;10.10;;;;;8.90;100994.00;;;;5032372;28;20594;-62
2023/12/16 10:17:34;;;;;;;14.50;9.10;;;;;9.00;100992.00;;;;5033809;28;20048;-62
2023/12/16 10:20:02;;;;;;;15.55;9.93;;;;;8.80;100991.00;;;;5034010;28;20065;-61
2023/12/16 10:22:29;;;;;;;14.50;9.93;;;;;8.70;100988.00;;;;5016235;28;20102;-61
2023/12/16 10:24:56;;;;;;;17.63;10.30;;;;;8.80;100994.00;;;;5033511;28;20607;-61
2023/12/16 10:27:23;;;;;;;20.45;10.70;;;;;8.90;100990.00;;;;5033991;28;20076;-62
2023/12/16 10:29:52;;;;;;;16.40;9.80;;;;;9.00;100990.00;;;;5032667;28;20055;-62
2023/12/16 10:32:32;;;;;;;17.02;9.60;;;;;9.00;100990.00;;;;5033801;28;20136;-62
2023/12/16 10:35:02;;;;;;;16.55;9.35;;;;;9.10;100990.00;;;;5033111;28;20116;-62
2023/12/16 10:37:28;;;;;;;18.70;9.50;;;;;9.20;100999.00;;;;5033635;28;20128;-63
2023/12/16 10:39:55;;;;;;;13.35;8.57;;;;;9.40;100998.00;;;;5033827;28;20413;-62
2023/12/16 10:42:22;;;;;;;13.05;8.02;;;;;9.60;101004.00;;;;5033771;28;20442;-61
2023/12/16 10:44:49;;;;;;;12.63;7.63;;;;;9.70;101011.00;;;;5033108;28;20053;-62
2023/12/16 10:47:17;;;;;;;17.48;9.45;;;;;9.70;100999.00;;;;5033753;28;20359;-62
2023/12/16 10:49:45;;;;;;;13.88;8.13;;;;;9.70;100998.00;;;;5033548;28;20128;-62
2023/12/16 10:52:13;;;;;;;11.98;7.68;;;;;9.50;100985.00;;;;5033603;28;20463;-62
2023/12/16 10:54:41;;;;;;;15.93;7.32;;;;;9.60;100990.00;;;;5031608;28;20053;-62
2023/12/16 10:57:15;;;;;;;15.82;8.77;;;;;9.70;100989.00;;;;5033379;28;20108;-62
2023/12/16 10:59:48;;;;;;;14.55;8.38;;;;;9.80;100995.00;;;;5033395;28;20057;-62
2023/12/16 11:02:26;;;;;;;14.20;8.02;;;;;9.90;100992.00;;;;5033453;28;20111;-61
2023/12/16 11:05:06;;;;;;;10.07;6.28;;;;;9.90;100991.00;;;;5031699;28;20443;-61
2023/12/16 11:07:38;;;;;;;14.75;8.05;;;;;9.90;100994.00;;;;5033246;28;20116;-61
2023/12/16 11:10:06;;;;;;;14.43;8.52;;;;;10.00;100993.00;;;;5033153;28;20041;-62
2023/12/16 11:12:37;;;;;;;13.60;8.07;;;;;10.10;100989.00;;;;5033169;28;20049;-62
2023/12/16 11:15:06;;;;;;;11.30;6.55;;;;;10.20;100990.00;;;;5031408;28;20050;-62
2023/12/16 11:17:47;;;;;;;12.18;6.90;;;;;10.20;100985.00;;;;5032894;28;20417;-62
2023/12/16 11:20:17;;;;;;;11.65;7.32;;;;;10.30;100990.00;;;;5031872;28;20499;-61
2023/12/16 11:22:53;;;;;;;12.75;7.95;;;;;10.20;100986.00;;;;5033086;28;20127;-62
2023/12/16 11:25:21;;;;;;;15.07;8.98;;;;;10.20;100985.00;;;;5032239;28;20076;-64
2023/12/16 11:27:51;;;;;;;15.77;8.73;;;;;10.20;100991.00;;;;5032840;28;20128;-63
2023/12/16 11:30:20;;;;;;;13.27;8.73;;;;;10.30;100993.00;;;;5032783;28;20073;-64
2023/12/16 11:32:54;;;;;;;14.68;8.65;;;;;10.30;100988.00;;;;5032772;28;20120;-61
2023/12/16 11:35:45;;;;;;;14.80;7.88;;;;;10.30;100982.00;;;;5032155;28;20046;-62
2023/12/16 11:38:34;;;;;;;13.10;7.85;;;;;10.30;100985.00;;;;5031488;28;20392;-64
2023/12/16 11:41:01;;;;;;;12.48;7.60;;;;;10.20;100976.00;;;;5031416;28;20490;-62
2023/12/16 11:43:52;;;;;;;13.63;7.68;;;;;10.30;100978.00;;;;5032077;28;20045;-61
2023/12/16 11:46:35;;;;;;;14.43;8.57;;;;;10.40;100977.00;;;;5032604;28;20120;-62
2023/12/16 11:49:03;;;;;;;13.95;7.65;;;;;10.40;100971.00;;;;5032523;28;20064;-62
2023/12/16 11:51:31;;;;;;;12.55;7.22;;;;;10.40;100964.00;;;;5032440;28;20119;-62
2023/12/16 11:53:59;;;;;;;17.13;8.63;;;;;10.40;100961.00;;;;5031669;28;20041;-62
2023/12/16 11:56:26;;;;;;;18.08;10.00;;;;;10.40;100970.00;;;;5032335;28;20116;-62
2023/12/16 11:58:57;;;;;;;24.02;11.02;;;;;10.40;100953.00;;;;5032393;28;20038;-64
2023/12/16 12:01:27;;;;;;;17.25;8.70;;;;;10.50;100945.00;;;;5032311;28;20080;-62
2023/12/16 12:03:55;;;;;;;13.98;7.88;;;;;10.50;100944.00;;;;5031768;28;20045;-62